Terminal Aerodrome Forecast
Issued by NWS Wilmington, NC

Home | Current Version | Previous Version | Text Only | Print | Product List | Glossary On
Versions: 1 2 3 4 5 6 7 8 9 10 11 12 13
000
FTUS42 KILM 200500
TAFILM
TAF
KILM 200530Z 2006/2106 04006KT P6SM BKN120
     FM201300 05007KT 6SM -RA BKN040 OVC100
      TEMPO 2014/2017 4SM RA SCT020
     FM201700 03008KT 6SM -RA BKN020 OVC040
     FM202300 02005KT P6SM FEW015 BKN025=

USA.gov is the U.S. government's official web portal to all federal, state and local government web resources and services.